Time;durP1;ratioP1;P1;durP2;ratioP2;P2;SDS_P1;SDS_P2;PMS_P1;PMS_P2;Temp;Humidity;BMP_temperature;BMP_pressure;BME280_temperature;BME280_humidity;BME280_pressure;Samples;Min_cycle;Max_cycle;Signal;HPM_P1;HPM_P2
2022/04/27 05:23:13;;;;;;;;;;;;;;;11.04;100.00;98453.47;5002783;23;19986;-72
2022/04/27 05:25:59;;;;;;;;;;;;;;;11.08;100.00;98457.06;4905886;29;19952;-72
2022/04/27 05:31:57;;;;;;;;;;;;;;;11.16;100.00;98464.28;4842436;29;19953;-73
2022/04/27 05:34:52;;;;;;;;;;;;;;;11.22;100.00;98473.09;4884961;29;19973;-73
2022/04/27 05:37:33;;;;;;;;;;;;;;;11.29;100.00;98466.69;4881585;29;19949;-73
2022/04/27 05:40:09;;;;;;;;;;;;;;;11.28;100.00;98474.28;4888897;29;19944;-73
2022/04/27 05:42:48;;;;;;;;;;;;;;;11.37;100.00;98480.28;4885403;29;20269;-73
2022/04/27 05:45:27;;;;;;;;;;;;;;;11.40;100.00;98478.69;4888497;29;19954;-73
2022/04/27 05:48:04;;;;;;;;;;;;;;;11.46;100.00;98488.31;4888480;29;19951;-73
2022/04/27 05:50:41;;;;;;;;;;;;;;;11.51;100.00;98493.50;4888403;29;20244;-73
2022/04/27 05:53:28;;;;;;;;;;;;;;;11.55;100.00;98485.88;4904132;29;19951;-73
2022/04/27 05:56:24;;;;;;;;;;;;;;;11.63;100.00;98484.69;4904604;29;19953;-73
2022/04/27 05:59:17;;;;;;;;;;;;;;;11.69;100.00;98483.91;4872741;29;20341;-73
2022/04/27 06:02:11;;;;;;;;;;;;;;;11.74;100.00;98491.13;4863835;29;20265;-74
2022/04/27 06:04:38;;;;;;;;;;;;;;;11.75;100.00;98493.53;4869480;29;20213;-74
2022/04/27 06:07:07;;;;;;;;;;;;;;;11.79;100.00;98497.13;4885938;29;19950;-74
2022/04/27 06:09:35;;;;;;;;;;;;;;;11.88;100.00;98491.91;4867447;29;19974;-73
2022/04/27 06:12:18;;;;;;;;;;;;;;;11.98;100.00;98500.72;4867109;29;19949;-74
2022/04/27 06:15:11;;;;;;;;;;;;;;;12.09;100.00;98501.50;4873666;29;19972;-74
2022/04/27 06:17:39;;;;;;;;;;;;;;;12.16;100.00;98504.28;4869410;29;19956;-73
2022/04/27 06:20:09;;;;;;;;;;;;;;;12.29;100.00;98500.66;4869230;29;19959;-73
2022/04/27 06:22:37;;;;;;;;;;;;;;;12.39;100.00;98505.44;4869218;29;19989;-74
2022/04/27 06:25:05;;;;;;;;;;;;;;;12.55;100.00;98502.19;4869021;29;19955;-74
2022/04/27 06:27:42;;;;;;;;;;;;;;;12.68;100.00;98499.72;4869235;29;20248;-74
2022/04/27 06:30:11;;;;;;;;;;;;;;;12.78;100.00;98505.31;4852398;29;20315;-74
2022/04/27 06:32:40;;;;;;;;;;;;;;;12.92;100.00;98505.25;4868661;29;19950;-74
2022/04/27 06:35:15;;;;;;;;;;;;;;;13.07;100.00;98520.03;4881102;29;19963;-74
2022/04/27 06:37:47;;;;;;;;;;;;;;;13.29;100.00;98515.91;4885482;29;19967;-71
2022/04/27 06:40:14;;;;;;;;;;;;;;;13.50;100.00;98518.56;4886358;29;19956;-71
2022/04/27 06:42:44;;;;;;;;;;;;;;;13.87;100.00;98523.50;4887125;29;19951;-71
2022/04/27 06:45:29;;;;;;;;;;;;;;;14.20;100.00;98527.63;4886137;29;19965;-71
2022/04/27 06:48:15;;;;;;;;;;;;;;;14.35;100.00;98529.91;4904032;29;19943;-71
2022/04/27 06:51:00;;;;;;;;;;;;;;;14.50;100.00;98536.16;4891657;29;19949;-71
2022/04/27 06:53:48;;;;;;;;;;;;;;;14.55;100.00;98537.75;4847915;29;19958;-71
2022/04/27 06:56:34;;;;;;;;;;;;;;;14.61;100.00;98536.06;4900937;29;19956;-71
2022/04/27 06:59:20;;;;;;;;;;;;;;;14.60;100.00;98542.94;4903903;29;19951;-71
2022/04/27 07:01:50;;;;;;;;;;;;;;;14.56;100.00;98545.78;4887280;29;20330;-71
2022/04/27 07:04:19;;;;;;;;;;;;;;;14.49;100.00;98543.03;4887022;29;19945;-71
2022/04/27 07:06:46;;;;;;;;;;;;;;;14.51;100.00;98542.59;4871256;29;19967;-71
2022/04/27 07:09:14;;;;;;;;;;;;;;;14.58;100.00;98551.78;4884138;29;19961;-71
2022/04/27 07:11:41;;;;;;;;;;;;;;;14.63;100.00;98554.13;4884645;29;20223;-71
2022/04/27 07:14:10;;;;;;;;;;;;;;;14.68;100.00;98553.69;4884895;29;19964;-71
2022/04/27 07:16:37;;;;;;;;;;;;;;;14.64;100.00;98552.94;4883995;29;19955;-71
2022/04/27 07:19:04;;;;;;;;;;;;;;;14.63;100.00;98559.75;4887897;29;19956;-71
2022/04/27 07:21:32;;;;;;;;;;;;;;;14.70;100.00;98561.69;4902431;29;19976;-71
2022/04/27 07:24:02;;;;;;;;;;;;;;;14.70;100.00;98562.50;4886511;29;20243;-71
2022/04/27 07:26:30;;;;;;;;;;;;;;;14.71;100.00;98566.13;4897966;29;19982;-71
2022/04/27 07:28:57;;;;;;;;;;;;;;;14.70;100.00;98572.94;4867649;29;19955;-71
2022/04/27 07:31:25;;;;;;;;;;;;;;;14.62;100.00;98572.25;4884146;29;19950;-71
2022/04/27 07:33:52;;;;;;;;;;;;;;;14.58;100.00;98574.28;4883820;29;20346;-71
2022/04/27 07:36:20;;;;;;;;;;;;;;;14.60;100.00;98571.84;4884131;29;19967;-71
2022/04/27 07:38:47;;;;;;;;;;;;;;;14.67;100.00;98579.44;4889834;29;19950;-71
2022/04/27 07:41:14;;;;;;;;;;;;;;;14.79;100.00;98576.09;4902063;29;20021;-71
2022/04/27 07:43:42;;;;;;;;;;;;;;;14.92;100.00;98586.38;4899648;29;19954;-71
2022/04/27 07:46:11;;;;;;;;;;;;;;;15.08;100.00;98572.53;4883088;29;19958;-71
2022/04/27 07:48:38;;;;;;;;;;;;;;;15.48;100.00;98579.25;4883811;29;19959;-71
2022/04/27 07:51:06;;;;;;;;;;;;;;;15.82;100.00;98570.69;4884134;29;20227;-71
2022/04/27 07:53:34;;;;;;;;;;;;;;;15.94;100.00;98570.13;4874439;29;19951;-71
2022/04/27 07:56:01;;;;;;;;;;;;;;;16.26;100.00;98578.06;4901524;29;19969;-73
2022/04/27 07:58:28;;;;;;;;;;;;;;;16.44;100.00;98584.19;4902079;29;20329;-74
2022/04/27 08:00:57;;;;;;;;;;;;;;;16.61;100.00;98580.28;4901929;29;19950;-74
2022/04/27 08:03:25;;;;;;;;;;;;;;;16.72;100.00;98588.56;4902552;29;20239;-74
2022/04/27 08:05:52;;;;;;;;;;;;;;;16.76;100.00;98586.44;4901344;29;19955;-74
2022/04/27 08:08:19;;;;;;;;;;;;;;;16.97;100.00;98586.06;4902503;29;19954;-74
2022/04/27 08:10:49;;;;;;;;;;;;;;;17.02;100.00;98591.97;4902332;29;19946;-74
2022/04/27 08:13:16;;;;;;;;;;;;;;;16.88;100.00;98592.25;4902067;29;19956;-74
2022/04/27 08:15:44;;;;;;;;;;;;;;;16.90;100.00;98603.13;4901104;29;19971;-74
2022/04/27 08:18:11;;;;;;;;;;;;;;;17.05;100.00;98605.25;4902237;29;19951;-73
2022/04/27 08:23:29;;;;;;;;;;;;;;;17.32;100.00;98609.94;4864963;29;19972;-74
2022/04/27 08:25:58;;;;;;;;;;;;;;;17.02;100.00;98619.44;4864084;29;19950;-74
2022/04/27 08:28:25;;;;;;;;;;;;;;;16.93;100.00;98616.38;4864955;29;19956;-74
2022/04/27 08:30:54;;;;;;;;;;;;;;;17.11;100.00;98619.69;4864401;29;19951;-74
2022/04/27 08:33:21;;;;;;;;;;;;;;;17.30;100.00;98618.06;4864474;29;19949;-74
2022/04/27 08:35:49;;;;;;;;;;;;;;;17.40;100.00;98615.03;4863005;29;19970;-74
2022/04/27 08:38:21;;;;;;;;;;;;;;;17.44;100.00;98631.91;4865257;29;19946;-74
2022/04/27 08:40:48;;;;;;;;;;;;;;;17.40;100.00;98626.34;4864596;29;19948;-74
2022/04/27 08:43:16;;;;;;;;;;;;;;;16.90;100.00;98626.53;4864608;29;19950;-74
2022/04/27 08:45:44;;;;;;;;;;;;;;;17.22;100.00;98625.09;4863909;29;19951;-74
2022/04/27 08:48:12;;;;;;;;;;;;;;;17.19;100.00;98623.94;4864561;29;19952;-74
2022/04/27 08:50:40;;;;;;;;;;;;;;;17.23;100.00;98627.50;4864585;29;20345;-74
2022/04/27 08:53:08;;;;;;;;;;;;;;;17.06;100.00;98625.81;4863253;29;19956;-74
2022/04/27 08:55:35;;;;;;;;;;;;;;;17.03;100.00;98623.88;4865701;29;20352;-74
2022/04/27 08:58:07;;;;;;;;;;;;;;;16.94;100.00;98627.28;4857889;29;20384;-74
2022/04/27 09:00:47;;;;;;;;;;;;;;;16.77;100.00;98625.56;4864447;29;19980;-74
2022/04/27 09:03:40;;;;;;;;;;;;;;;16.86;100.00;98631.44;4864491;29;20246;-74
2022/04/27 09:06:12;;;;;;;;;;;;;;;16.90;100.00;98628.53;4861615;29;19950;-74
2022/04/27 09:08:41;;;;;;;;;;;;;;;17.05;100.00;98632.69;4864254;29;19948;-74
2022/04/27 09:11:15;;;;;;;;;;;;;;;17.23;100.00;98636.00;4864359;29;19952;-74
2022/04/27 09:13:46;;;;;;;;;;;;;;;17.40;100.00;98640.47;4863564;29;19951;-74
2022/04/27 09:16:14;;;;;;;;;;;;;;;17.55;100.00;98639.00;4863534;29;19973;-74
2022/04/27 09:21:52;;;;;;;;;;;;;;;17.73;100.00;98635.75;4872469;29;19969;-74
2022/04/27 09:24:20;;;;;;;;;;;;;;;17.75;100.00;98636.13;4900988;29;19950;-74
2022/04/27 09:27:03;;;;;;;;;;;;;;;17.79;100.00;98634.00;4901007;29;20371;-74
2022/04/27 09:29:31;;;;;;;;;;;;;;;17.61;100.00;98640.06;4901183;29;19955;-74
2022/04/27 09:31:58;;;;;;;;;;;;;;;17.70;100.00;98631.78;4890592;29;20218;-74
2022/04/27 09:34:28;;;;;;;;;;;;;;;17.89;100.00;98629.34;4882191;29;19948;-73
2022/04/27 09:37:00;;;;;;;;;;;;;;;17.83;100.00;98637.56;4901056;29;19976;-74
2022/04/27 09:39:28;;;;;;;;;;;;;;;17.79;100.00;98641.69;4901406;29;19947;-74
2022/04/27 09:42:05;;;;;;;;;;;;;;;17.63;100.00;98642.47;4901419;29;19945;-74
2022/04/27 09:44:34;;;;;;;;;;;;;;;17.27;100.00;98636.69;4900538;29;19954;-74
2022/04/27 09:47:05;;;;;;;;;;;;;;;17.15;100.00;98630.91;4900386;29;19957;-74
2022/04/27 09:49:36;;;;;;;;;;;;;;;17.09;100.00;98636.28;4901369;29;20248;-74
2022/04/27 09:52:07;;;;;;;;;;;;;;;16.92;100.00;98631.75;4884784;29;19953;-73
2022/04/27 09:54:36;;;;;;;;;;;;;;;16.84;100.00;98635.94;4901058;29;19955;-74
2022/04/27 09:57:04;;;;;;;;;;;;;;;16.81;100.00;98636.78;4898712;29;20231;-74
2022/04/27 09:59:32;;;;;;;;;;;;;;;16.85;100.00;98637.50;4881774;29;20248;-74
2022/04/27 10:02:20;;;;;;;;;;;;;;;16.91;100.00;98630.16;4882499;29;19949;-74
2022/04/27 10:04:49;;;;;;;;;;;;;;;17.14;100.00;98637.78;4884080;29;19949;-74
2022/04/27 10:07:20;;;;;;;;;;;;;;;17.23;100.00;98636.00;4885739;29;19956;-74
2022/04/27 10:09:49;;;;;;;;;;;;;;;17.14;100.00;98632.16;4885915;29;19950;-74
2022/04/27 10:12:17;;;;;;;;;;;;;;;17.09;100.00;98630.63;4885245;29;19948;-74
2022/04/27 10:14:44;;;;;;;;;;;;;;;17.12;100.00;98634.59;4885378;29;19957;-74
2022/04/27 10:17:12;;;;;;;;;;;;;;;16.98;100.00;98635.66;4884688;29;19970;-74
2022/04/27 10:19:46;;;;;;;;;;;;;;;17.00;100.00;98622.69;4885125;29;19950;-74
2022/04/27 10:22:31;;;;;;;;;;;;;;;17.04;100.00;98633.94;4885766;29;19970;-74
2022/04/27 10:25:09;;;;;;;;;;;;;;;16.91;100.00;98630.16;4885481;29;20248;-74
2022/04/27 10:27:42;;;;;;;;;;;;;;;16.92;100.00;98626.09;4900002;29;19977;-74
2022/04/27 10:30:11;;;;;;;;;;;;;;;16.73;100.00;98624.81;4904249;29;19943;-74
2022/04/27 10:32:48;;;;;;;;;;;;;;;16.63;100.00;98627.84;4903847;29;20241;-74
2022/04/27 10:35:21;;;;;;;;;;;;;;;16.85;100.00;98624.19;4903279;29;20243;-74
2022/04/27 10:37:59;;;;;;;;;;;;;;;17.13;100.00;98634.16;4903936;29;20255;-74
2022/04/27 10:40:32;;;;;;;;;;;;;;;17.12;100.00;98628.97;4903458;29;19955;-74
2022/04/27 10:43:05;;;;;;;;;;;;;;;17.11;100.00;98633.81;4903480;29;19959;-74
2022/04/27 10:45:33;;;;;;;;;;;;;;;16.91;100.00;98627.31;4900783;29;19951;-74
2022/04/27 10:48:03;;;;;;;;;;;;;;;16.97;100.00;98631.25;4885291;29;19957;-74
2022/04/27 10:50:34;;;;;;;;;;;;;;;16.85;100.00;98629.03;4885074;29;19958;-74
2022/04/27 10:53:14;;;;;;;;;;;;;;;16.79;100.00;98634.41;4885026;29;19949;-74
2022/04/27 10:55:51;;;;;;;;;;;;;;;16.75;100.00;98635.72;4886432;29;19968;-74
2022/04/27 10:58:23;;;;;;;;;;;;;;;16.85;100.00;98629.84;4900356;29;19981;-74
2022/04/27 11:01:03;;;;;;;;;;;;;;;16.67;100.00;98637.84;4885144;29;20246;-73
2022/04/27 11:03:31;;;;;;;;;;;;;;;16.42;100.00;98632.59;4884571;29;19948;-74
2022/04/27 11:05:59;;;;;;;;;;;;;;;16.73;100.00;98632.50;4884211;29;19955;-74
2022/04/27 11:08:32;;;;;;;;;;;;;;;16.90;100.00;98626.53;4884629;29;19952;-74
2022/04/27 11:11:06;;;;;;;;;;;;;;;17.02;100.00;98637.19;4890267;29;20343;-74
2022/04/27 11:13:34;;;;;;;;;;;;;;;17.04;100.00;98628.28;4902636;29;19948;-74
2022/04/27 11:16:12;;;;;;;;;;;;;;;16.98;100.00;98636.47;4900038;29;19995;-74
2022/04/27 11:18:51;;;;;;;;;;;;;;;17.16;100.00;98638.97;4902356;29;19957;-74
2022/04/27 11:21:19;;;;;;;;;;;;;;;17.23;100.00;98646.50;4902656;29;20251;-74
2022/04/27 11:23:51;;;;;;;;;;;;;;;17.22;100.00;98647.72;4885266;29;20223;-74
2022/04/27 11:26:19;;;;;;;;;;;;;;;16.97;100.00;98636.91;4900764;29;19958;-73
2022/04/27 11:28:46;;;;;;;;;;;;;;;17.08;100.00;98643.94;4901336;29;20239;-74
2022/04/27 11:31:14;;;;;;;;;;;;;;;17.36;100.00;98641.78;4901786;29;19951;-74
2022/04/27 11:33:42;;;;;;;;;;;;;;;17.27;100.00;98639.53;4901428;29;19952;-73
2022/04/27 11:36:29;;;;;;;;;;;;;;;17.51;100.00;98635.38;4901095;29;19968;-74
2022/04/27 11:38:57;;;;;;;;;;;;;;;17.43;100.00;98628.31;4901646;29;19957;-74
2022/04/27 11:41:24;;;;;;;;;;;;;;;17.47;100.00;98631.84;4901309;29;19947;-74
2022/04/27 11:43:55;;;;;;;;;;;;;;;17.53;100.00;98632.94;4901210;29;19954;-74
2022/04/27 11:46:22;;;;;;;;;;;;;;;17.21;100.00;98640.47;4900491;29;19953;-74
2022/04/27 11:48:51;;;;;;;;;;;;;;;17.47;100.00;98633.88;4901709;29;20349;-74
2022/04/27 11:51:18;;;;;;;;;;;;;;;17.53;100.00;98627.28;4901374;29;19951;-74
2022/04/27 11:53:49;;;;;;;;;;;;;;;17.49;100.00;98628.56;4902072;29;19955;-74
2022/04/27 11:56:18;;;;;;;;;;;;;;;17.56;100.00;98634.09;4900266;29;19971;-74
2022/04/27 11:58:46;;;;;;;;;;;;;;;17.76;100.00;98640.53;4900551;29;19959;-74
2022/04/27 12:01:20;;;;;;;;;;;;;;;17.75;100.00;98636.13;4899468;29;19979;-74
2022/04/27 12:03:49;;;;;;;;;;;;;;;17.62;100.00;98638.03;4901748;29;19945;-74
2022/04/27 12:06:18;;;;;;;;;;;;;;;17.41;100.00;98639.22;4900858;29;20320;-74
2022/04/27 12:08:45;;;;;;;;;;;;;;;17.47;100.00;98631.84;4899005;29;20252;-74
2022/04/27 12:11:24;;;;;;;;;;;;;;;17.54;100.00;98630.94;4897865;29;19958;-74
2022/04/27 12:13:54;;;;;;;;;;;;;;;17.76;100.00;98629.22;4894087;29;19956;-74
2022/04/27 12:16:21;;;;;;;;;;;;;;;17.71;100.00;98622.06;4894684;29;19965;-74
2022/04/27 12:18:53;;;;;;;;;;;;;;;17.69;100.00;98632.22;4888744;29;19949;-71
2022/04/27 12:21:26;;;;;;;;;;;;;;;17.70;100.00;98620.44;4826406;29;2015705;-72
2022/04/27 12:23:57;;;;;;;;;;;;;;;17.84;100.00;98629.88;4899470;29;19960;-71
2022/04/27 12:26:27;;;;;;;;;;;;;;;18.02;100.00;98630.28;4887509;29;19955;-71
2022/04/27 12:28:54;;;;;;;;;;;;;;;18.08;100.00;98620.00;4890376;29;20247;-71
2022/04/27 12:31:25;;;;;;;;;;;;;;;18.21;100.00;98620.91;4897749;29;19966;-71
2022/04/27 12:33:53;;;;;;;;;;;;;;;18.22;100.00;98623.28;4895443;29;19954;-72
2022/04/27 12:39:20;;;;;;;;;;;;;;;18.21;100.00;98612.44;4894400;29;20253;-71
2022/04/27 12:41:49;;;;;;;;;;;;;;;18.05;100.00;98618.06;4893268;29;20438;-72
2022/04/27 12:44:17;;;;;;;;;;;;;;;17.94;100.00;98614.69;4895269;29;20290;-72
2022/04/27 12:46:57;;;;;;;;;;;;;;;18.05;100.00;98616.03;4889080;29;19950;-71
2022/04/27 12:49:34;;;;;;;;;;;;;;;18.11;100.00;98613.47;4899663;29;19949;-71
2022/04/27 12:52:18;;;;;;;;;;;;;;;18.00;100.00;98615.75;4889958;29;19957;-72
2022/04/27 12:54:46;;;;;;;;;;;;;;;18.15;100.00;98605.69;4889447;29;19949;-71
2022/04/27 12:57:14;;;;;;;;;;;;;;;17.91;100.00;98607.88;4890613;29;19967;-72
2022/04/27 12:59:58;;;;;;;;;;;;;;;17.94;100.00;98601.34;4885695;29;19948;-72
2022/04/27 13:02:26;;;;;;;;;;;;;;;17.85;100.00;98603.97;4900614;29;20357;-71
2022/04/27 13:04:53;;;;;;;;;;;;;;;17.84;100.00;98598.75;4894898;29;19958;-71
2022/04/27 13:07:21;;;;;;;;;;;;;;;18.12;100.00;98598.88;4895500;29;19951;-71
2022/04/27 13:12:35;;;;;;;;;;;;;;;18.17;100.00;98601.19;4891310;29;20344;-71
2022/04/27 13:15:02;;;;;;;;;;;;;;;18.14;100.00;98592.78;4899658;29;20246;-71
2022/04/27 13:17:30;;;;;;;;;;;;;;;18.13;100.00;98594.81;4890972;29;20258;-72
2022/04/27 13:19:57;;;;;;;;;;;;;;;18.10;100.00;98592.84;4898452;29;19949;-71
2022/04/27 13:22:25;;;;;;;;;;;;;;;18.25;100.00;98601.81;4900691;29;19975;-71
2022/04/27 13:24:56;;;;;;;;;;;;;;;18.29;100.00;98588.38;4896464;29;19964;-71
2022/04/27 13:27:25;;;;;;;;;;;;;;;18.25;100.00;98593.31;4898745;29;20257;-72
2022/04/27 13:29:53;;;;;;;;;;;;;;;18.12;100.00;98596.03;4885417;29;19957;-71
2022/04/27 13:32:20;;;;;;;;;;;;;;;18.08;100.00;98595.34;4897591;29;19949;-72
2022/04/27 13:34:48;;;;;;;;;;;;;;;18.11;100.00;98594.47;4900228;29;19948;-72
2022/04/27 13:37:17;;;;;;;;;;;;;;;18.16;100.00;98582.63;4899713;29;20374;-72
2022/04/27 13:39:44;;;;;;;;;;;;;;;18.38;100.00;98580.84;4901969;29;19951;-72
2022/04/27 13:42:12;;;;;;;;;;;;;;;18.30;100.00;98587.91;4902853;29;19949;-71
2022/04/27 13:44:39;;;;;;;;;;;;;;;18.28;100.00;98578.28;4903134;29;19952;-72
2022/04/27 13:47:06;;;;;;;;;;;;;;;18.23;100.00;98578.81;4903278;29;19947;-71
2022/04/27 13:49:34;;;;;;;;;;;;;;;18.21;100.00;98582.09;4902233;29;20334;-72
2022/04/27 13:52:02;;;;;;;;;;;;;;;18.21;100.00;98576.44;4900045;29;19963;-72
2022/04/27 13:54:31;;;;;;;;;;;;;;;18.33;100.00;98578.53;4903957;29;20355;-72
2022/04/27 13:56:58;;;;;;;;;;;;;;;18.33;100.00;98572.88;4902262;29;20338;-71
2022/04/27 13:59:26;;;;;;;;;;;;;;;18.22;100.00;98574.38;4898311;29;19949;-71
2022/04/27 14:01:53;;;;;;;;;;;;;;;18.30;100.00;98572.97;4902935;29;19949;-71
2022/04/27 14:04:20;;;;;;;;;;;;;;;18.20;100.00;98579.69;4895992;29;20259;-71
2022/04/27 14:06:50;;;;;;;;;;;;;;;18.09;100.00;98568.66;4889393;29;20036;-71
2022/04/27 14:09:17;;;;;;;;;;;;;;;18.13;100.00;98568.53;4888242;29;19960;-71
2022/04/27 14:14:31;;;;;;;;;;;;;;;18.14;100.00;98570.16;4884755;29;19948;-72
2022/04/27 14:19:47;;;;;;;;;;;;;;;18.10;100.00;98569.41;4885038;29;19965;-71
2022/04/27 14:22:14;;;;;;;;;;;;;;;18.22;100.00;98571.53;4884797;29;19972;-71
2022/04/27 14:24:42;;;;;;;;;;;;;;;18.10;100.00;98566.59;4884552;29;19965;-71
2022/04/27 14:27:10;;;;;;;;;;;;;;;18.01;100.00;98574.91;4884387;29;20255;-71
2022/04/27 14:29:37;;;;;;;;;;;;;;;18.06;100.00;98574.38;4884729;29;20241;-72
2022/04/27 14:32:05;;;;;;;;;;;;;;;18.22;100.00;98565.88;4900726;29;19948;-72
2022/04/27 14:34:33;;;;;;;;;;;;;;;18.09;100.00;98568.66;4891798;29;19949;-72
2022/04/27 14:37:00;;;;;;;;;;;;;;;18.11;100.00;98563.34;4896209;29;19949;-71
2022/04/27 14:39:29;;;;;;;;;;;;;;;18.15;100.00;98557.56;4903192;29;20252;-71
2022/04/27 14:41:56;;;;;;;;;;;;;;;18.14;100.00;98553.94;4887550;29;19947;-72
2022/04/27 14:44:24;;;;;;;;;;;;;;;18.13;100.00;98563.69;4903004;29;19953;-71
2022/04/27 14:46:51;;;;;;;;;;;;;;;18.24;100.00;98558.53;4903097;29;19948;-71
2022/04/27 14:49:19;;;;;;;;;;;;;;;18.21;100.00;98562.28;4886283;29;20343;-71
2022/04/27 14:51:46;;;;;;;;;;;;;;;18.25;100.00;98562.16;4901752;29;19954;-71
2022/04/27 14:54:14;;;;;;;;;;;;;;;18.26;100.00;98560.94;4902555;29;19958;-71
2022/04/27 14:56:41;;;;;;;;;;;;;;;18.28;100.00;98561.28;4902638;29;19947;-72
2022/04/27 14:59:09;;;;;;;;;;;;;;;18.24;100.00;98558.53;4902955;29;19969;-72
2022/04/27 15:01:36;;;;;;;;;;;;;;;18.09;100.00;98560.16;4903120;29;19948;-72
2022/04/27 15:04:04;;;;;;;;;;;;;;;18.24;100.00;98557.75;4902831;29;19948;-71
2022/04/27 15:06:31;;;;;;;;;;;;;;;18.07;100.00;98554.13;4901958;29;19955;-71
2022/04/27 15:08:59;;;;;;;;;;;;;;;17.95;100.00;98559.69;4902183;29;19960;-72
2022/04/27 15:11:28;;;;;;;;;;;;;;;18.01;100.00;98555.09;4901224;29;19968;-71
2022/04/27 15:13:55;;;;;;;;;;;;;;;18.10;100.00;98556.06;4901997;29;19961;-71
2022/04/27 15:16:23;;;;;;;;;;;;;;;18.02;100.00;98556.69;4887319;29;19957;-72
2022/04/27 15:18:50;;;;;;;;;;;;;;;18.01;100.00;98550.25;4901343;29;19965;-71
2022/04/27 15:24:04;;;;;;;;;;;;;;;18.03;100.00;98553.41;4892303;29;20252;-72
2022/04/27 15:29:18;;;;;;;;;;;;;;;17.85;100.00;98549.44;4898935;29;20234;-72
2022/04/27 15:31:45;;;;;;;;;;;;;;;17.88;100.00;98545.69;4902824;29;20268;-71
2022/04/27 15:34:12;;;;;;;;;;;;;;;17.93;100.00;98550.84;4899725;29;19959;-71
2022/04/27 15:36:39;;;;;;;;;;;;;;;17.93;100.00;98550.84;4878787;29;19948;-71
2022/04/27 15:39:07;;;;;;;;;;;;;;;17.86;100.00;98548.97;4892918;29;20267;-71
2022/04/27 15:41:36;;;;;;;;;;;;;;;17.85;100.00;98547.38;4898534;29;20349;-72
2022/04/27 15:44:03;;;;;;;;;;;;;;;17.87;100.00;98550.59;4886533;29;19954;-71
2022/04/27 15:46:31;;;;;;;;;;;;;;;17.88;100.00;98555.00;4885205;29;19950;-71
2022/04/27 15:48:58;;;;;;;;;;;;;;;17.86;100.00;98556.66;4902072;29;19957;-72
2022/04/27 15:51:25;;;;;;;;;;;;;;;17.84;100.00;98553.47;4876146;29;20014;-71
2022/04/27 15:53:53;;;;;;;;;;;;;;;17.88;100.00;98548.53;4901207;29;19956;-71
2022/04/27 15:56:20;;;;;;;;;;;;;;;17.87;100.00;98555.44;4900904;29;19950;-72
2022/04/27 15:58:47;;;;;;;;;;;;;;;17.82;100.00;98553.13;4902619;29;20040;-71
2022/04/27 16:01:15;;;;;;;;;;;;;;;17.89;100.00;98555.78;4900878;29;19954;-71
2022/04/27 16:03:42;;;;;;;;;;;;;;;17.80;100.00;98556.41;4897889;29;19957;-71
2022/04/27 16:06:09;;;;;;;;;;;;;;;17.76;100.00;98554.88;4902348;29;19960;-72
2022/04/27 16:08:38;;;;;;;;;;;;;;;17.65;100.00;98547.44;4889417;29;19958;-72
2022/04/27 16:11:05;;;;;;;;;;;;;;;17.60;100.00;98548.00;4892625;29;19949;-72
2022/04/27 16:13:32;;;;;;;;;;;;;;;17.59;100.00;98549.22;4895506;29;20409;-71
2022/04/27 16:16:04;;;;;;;;;;;;;;;17.56;100.00;98547.25;4898442;29;19980;-72
2022/04/27 16:18:33;;;;;;;;;;;;;;;17.54;100.00;98546.91;4886707;29;20259;-71
2022/04/27 16:23:46;;;;;;;;;;;;;;;17.52;100.00;98557.06;4900692;29;20222;-71
2022/04/27 16:26:14;;;;;;;;;;;;;;;17.48;100.00;98556.31;4899087;29;19968;-71
2022/04/27 16:28:41;;;;;;;;;;;;;;;17.47;100.00;98554.72;4897617;29;19952;-71
2022/04/27 16:31:08;;;;;;;;;;;;;;;17.50;100.00;98549.00;4896931;29;19950;-71
2022/04/27 16:33:36;;;;;;;;;;;;;;;17.42;100.00;98558.06;4901221;29;19956;-72
2022/04/27 16:36:03;;;;;;;;;;;;;;;17.40;100.00;98564.16;4900142;29;19956;-71
2022/04/27 16:38:30;;;;;;;;;;;;;;;17.36;100.00;98563.41;4884639;29;19972;-71
2022/04/27 16:40:59;;;;;;;;;;;;;;;17.43;100.00;98562.47;4890831;29;20255;-72
2022/04/27 16:43:43;;;;;;;;;;;;;;;17.37;100.00;98564.22;4896744;29;20343;-72
2022/04/27 16:46:10;;;;;;;;;;;;;;;17.39;100.00;98570.22;4897818;29;19954;-72
2022/04/27 16:48:38;;;;;;;;;;;;;;;17.46;100.00;98568.03;4872088;29;19949;-71
2022/04/27 16:51:05;;;;;;;;;;;;;;;17.38;100.00;98565.81;4892146;29;19958;-71
2022/04/27 16:53:33;;;;;;;;;;;;;;;17.32;100.00;98562.72;4900056;29;19948;-71
2022/04/27 16:56:02;;;;;;;;;;;;;;;17.26;100.00;98561.63;4901207;29;19950;-71
2022/04/27 16:58:30;;;;;;;;;;;;;;;17.26;100.00;98561.63;4896760;29;20353;-71
2022/04/27 17:00:59;;;;;;;;;;;;;;;17.20;100.00;98566.19;4889938;29;20232;-71
2022/04/27 17:03:28;;;;;;;;;;;;;;;17.17;100.00;98574.72;4882516;29;19957;-71
2022/04/27 17:05:57;;;;;;;;;;;;;;;17.11;100.00;98577.28;4898305;29;19948;-72
2022/04/27 17:08:25;;;;;;;;;;;;;;;17.07;100.00;98571.69;4901437;29;20332;-71
2022/04/27 17:10:55;;;;;;;;;;;;;;;17.05;100.00;98576.19;4894156;29;19950;-71
2022/04/27 17:13:25;;;;;;;;;;;;;;;17.02;100.00;98579.88;4894200;29;19957;-71
2022/04/27 17:15:53;;;;;;;;;;;;;;;17.06;100.00;98581.44;4901476;29;19948;-72
2022/04/27 17:18:20;;;;;;;;;;;;;;;17.11;100.00;98588.59;4887542;29;19954;-71
2022/04/27 17:20:50;;;;;;;;;;;;;;;17.01;100.00;98581.94;4892957;29;19957;-72
2022/04/27 17:23:18;;;;;;;;;;;;;;;16.92;100.00;98580.91;4901969;29;19973;-71
2022/04/27 17:28:33;;;;;;;;;;;;;;;16.76;100.00;98583.63;4899266;29;20336;-71
2022/04/27 17:31:00;;;;;;;;;;;;;;;16.69;100.00;98589.41;4896400;29;19949;-71
2022/04/27 17:33:28;;;;;;;;;;;;;;;16.63;100.00;98593.97;4900433;29;19955;-71
2022/04/27 17:35:55;;;;;;;;;;;;;;;16.57;100.00;98602.13;4892202;29;19949;-71
2022/04/27 17:38:22;;;;;;;;;;;;;;;16.54;100.00;98600.16;4886243;29;19950;-71
2022/04/27 17:40:49;;;;;;;;;;;;;;;16.54;100.00;98597.34;4886447;29;19953;-71
2022/04/27 17:43:18;;;;;;;;;;;;;;;16.49;100.00;98602.66;4886581;29;19949;-71
2022/04/27 17:45:55;;;;;;;;;;;;;;;16.41;100.00;98599.94;4900680;29;19953;-71
2022/04/27 17:48:22;;;;;;;;;;;;;;;16.35;100.00;98607.31;4888176;29;19949;-71
2022/04/27 17:50:49;;;;;;;;;;;;;;;16.32;100.00;98610.19;4891825;29;19959;-72
2022/04/27 17:53:17;;;;;;;;;;;;;;;16.23;100.00;98612.78;4898624;29;19952;-71
2022/04/27 17:55:45;;;;;;;;;;;;;;;16.15;100.00;98614.91;4900835;29;19953;-71
2022/04/27 17:58:13;;;;;;;;;;;;;;;16.08;100.00;98609.38;4888608;29;19949;-71
2022/04/27 18:00:40;;;;;;;;;;;;;;;15.97;100.00;98610.78;4897880;29;19975;-71
2022/04/27 18:03:07;;;;;;;;;;;;;;;15.91;100.00;98616.09;4894815;29;19964;-71
2022/04/27 18:05:35;;;;;;;;;;;;;;;15.88;100.00;98619.75;4897915;29;20364;-71
2022/04/27 18:08:03;;;;;;;;;;;;;;;15.84;100.00;98619.03;4904911;29;19958;-71
2022/04/27 18:10:30;;;;;;;;;;;;;;;15.80;100.00;98623.13;4901450;29;19958;-71
2022/04/27 18:12:58;;;;;;;;;;;;;;;15.75;100.00;98618.72;4893482;29;19950;-71
2022/04/27 18:15:46;;;;;;;;;;;;;;;15.73;100.00;98627.63;4893636;29;19954;-71
2022/04/27 18:18:14;;;;;;;;;;;;;;;15.65;100.00;98633.78;4888728;29;20250;-71
2022/04/27 18:20:41;;;;;;;;;;;;;;;15.60;100.00;98632.22;4901001;29;19974;-71
2022/04/27 18:23:09;;;;;;;;;;;;;;;15.58;100.00;98633.88;4897661;29;20254;-72
2022/04/27 18:25:36;;;;;;;;;;;;;;;15.54;100.00;98633.13;4900252;29;19954;-71
2022/04/27 18:28:04;;;;;;;;;;;;;;;15.47;100.00;98630.41;4898312;29;19971;-71
2022/04/27 18:30:32;;;;;;;;;;;;;;;15.42;100.00;98639.31;4897843;29;19951;-72
2022/04/27 18:33:00;;;;;;;;;;;;;;;15.38;100.00;98644.19;4895213;29;19956;-71
2022/04/27 18:35:28;;;;;;;;;;;;;;;15.34;100.00;98652.69;4897907;29;19956;-72
2022/04/27 18:37:56;;;;;;;;;;;;;;;15.30;100.00;98649.13;4897618;29;20065;-71
2022/04/27 18:40:24;;;;;;;;;;;;;;;15.23;100.00;98654.03;4899629;29;19966;-71
2022/04/27 18:42:51;;;;;;;;;;;;;;;15.19;100.00;98662.50;4894218;29;20272;-71
2022/04/27 18:50:51;;;;;;;;;;;;;;;15.09;100.00;98664.22;4896920;29;19955;-71